createdAt,value
2022-12-15T00:00:48.868Z,23.38
2022-12-15T00:03:31.715Z,24.73
2022-12-15T00:06:15.763Z,20.10
2022-12-15T00:09:00.689Z,18.00
2022-12-15T00:11:42.980Z,19.08
2022-12-15T00:14:26.625Z,17.92
2022-12-15T00:17:08.948Z,19.83
2022-12-15T00:19:51.233Z,19.10
2022-12-15T00:22:33.656Z,17.80
2022-12-15T00:25:18.729Z,15.50
2022-12-15T00:28:01.035Z,19.02
2022-12-15T00:30:43.331Z,18.52
2022-12-15T00:33:26.535Z,23.00
2022-12-15T00:36:08.838Z,18.08
2022-12-15T00:38:47.930Z,22.80
2022-12-15T00:41:21.036Z,18.63
2022-12-15T00:43:51.019Z,24.13
2022-12-15T00:46:33.411Z,26.98
2022-12-15T00:49:03.874Z,23.73
2022-12-15T00:51:46.179Z,22.90
2022-12-15T00:54:28.480Z,26.05
2022-12-15T00:57:13.360Z,27.60
2022-12-15T00:59:55.673Z,23.88
2022-12-15T01:02:38.108Z,21.85
2022-12-15T01:05:21.580Z,23.02
2022-12-15T01:08:03.860Z,18.30
2022-12-15T01:10:46.152Z,19.13
2022-12-15T01:13:31.464Z,23.02
2022-12-15T01:16:14.057Z,19.88
2022-12-15T01:18:56.379Z,20.02
2022-12-15T01:21:26.303Z,18.13
2022-12-15T01:23:56.562Z,16.80
2022-12-15T01:26:26.559Z,13.55
2022-12-15T01:28:58.999Z,14.15
2022-12-15T01:31:28.995Z,13.43
2022-12-15T01:33:58.903Z,11.20
2022-12-15T01:36:28.748Z,12.52
2022-12-15T01:38:58.652Z,12.73
2022-12-15T01:41:25.908Z,9.32
2022-12-15T01:43:58.524Z,10.10
2022-12-15T01:46:28.603Z,10.25
2022-12-15T01:49:02.765Z,11.40
2022-12-15T01:51:35.825Z,9.73
2022-12-15T01:54:09.005Z,11.00
2022-12-15T01:56:41.058Z,8.80
2022-12-15T01:59:17.955Z,10.30
2022-12-15T02:01:50.006Z,8.93
2022-12-15T02:04:21.543Z,10.32
2022-12-15T02:06:53.118Z,10.35
2022-12-15T02:09:24.111Z,10.13
2022-12-15T02:12:03.719Z,10.20
2022-12-15T02:14:48.782Z,10.80
2022-12-15T02:17:26.429Z,10.13
2022-12-15T02:20:41.963Z,10.57
2022-12-15T02:23:37.429Z,10.43
2022-12-15T02:26:48.916Z,10.15
2022-12-15T02:29:43.835Z,10.95
2022-12-15T02:32:18.129Z,11.48
2022-12-15T02:34:50.745Z,8.25
2022-12-15T02:37:22.721Z,10.20
2022-12-15T02:39:52.747Z,8.45
2022-12-15T02:42:22.884Z,9.07
2022-12-15T02:44:55.709Z,8.88
2022-12-15T02:47:34.555Z,12.07
2022-12-15T02:50:46.180Z,10.82
2022-12-15T02:53:29.045Z,11.35
2022-12-15T02:56:03.971Z,9.77
2022-12-15T02:58:40.652Z,9.10
2022-12-15T03:01:14.636Z,8.95
2022-12-15T03:03:47.312Z,9.55
2022-12-15T03:06:17.545Z,11.57
2022-12-15T03:08:47.502Z,10.93
2022-12-15T03:11:17.378Z,10.65
2022-12-15T03:13:47.333Z,11.95
2022-12-15T03:16:20.476Z,10.77
2022-12-15T03:18:53.065Z,11.10
2022-12-15T03:21:22.990Z,11.63
2022-12-15T03:23:52.921Z,9.07
2022-12-15T03:26:22.795Z,9.48
2022-12-15T03:28:52.938Z,9.55
2022-12-15T03:31:23.575Z,10.35
2022-12-15T03:33:56.188Z,9.68
2022-12-15T03:36:26.182Z,12.13
2022-12-15T03:38:56.029Z,11.20
2022-12-15T03:41:25.869Z,11.07
2022-12-15T03:43:55.694Z,9.43
2022-12-15T03:46:25.586Z,10.57
2022-12-15T03:48:58.700Z,9.40
2022-12-15T03:51:28.875Z,9.82
2022-12-15T03:53:59.150Z,12.75
2022-12-15T03:56:29.129Z,11.82
2022-12-15T03:58:59.098Z,10.82
2022-12-15T04:01:31.716Z,9.48
2022-12-15T04:04:05.193Z,11.18
2022-12-15T04:06:35.212Z,9.35
2022-12-15T04:09:05.220Z,10.82
2022-12-15T04:11:35.094Z,11.82
2022-12-15T04:14:05.037Z,10.52
2022-12-15T04:16:35.001Z,11.18
2022-12-15T04:19:20.414Z,10.80
2022-12-15T04:21:50.457Z,11.15
2022-12-15T04:24:32.785Z,10.02
2022-12-15T04:27:15.057Z,8.55
2022-12-15T04:29:57.414Z,11.40
2022-12-15T04:32:39.780Z,10.95
2022-12-15T04:35:25.126Z,9.85
2022-12-15T04:38:07.420Z,9.82
2022-12-15T04:40:49.700Z,10.27
2022-12-15T04:43:32.337Z,10.80
2022-12-15T04:46:15.019Z,10.13
2022-12-15T04:48:57.323Z,12.13
2022-12-15T04:51:42.225Z,10.18
2022-12-15T04:54:24.544Z,11.30
2022-12-15T04:57:06.860Z,9.15
2022-12-15T04:59:49.173Z,12.73
2022-12-15T05:02:31.551Z,15.80
2022-12-15T05:05:13.922Z,12.88
2022-12-15T05:07:58.803Z,18.75
2022-12-15T05:10:41.085Z,16.15
2022-12-15T05:13:24.099Z,14.75
2022-12-15T05:16:06.511Z,8.73
2022-12-15T05:18:48.904Z,12.90
2022-12-15T05:21:31.204Z,14.55
2022-12-15T05:24:16.292Z,11.23
2022-12-15T05:26:58.632Z,14.27
2022-12-15T05:29:40.971Z,13.50
2022-12-15T05:32:13.292Z,10.90
2022-12-15T05:34:43.220Z,13.43
2022-12-15T05:37:13.133Z,14.10
2022-12-15T05:39:45.656Z,14.00
2022-12-15T05:42:15.745Z,12.95
2022-12-15T05:44:45.884Z,14.07
2022-12-15T05:47:15.721Z,12.77
2022-12-15T05:49:45.657Z,11.88
2022-12-15T05:52:15.457Z,12.30
2022-12-15T05:54:47.999Z,10.88
2022-12-15T05:57:17.930Z,8.65
2022-12-15T05:59:47.746Z,15.32
2022-12-15T06:02:17.665Z,12.93
2022-12-15T06:04:47.742Z,8.25
2022-12-15T06:07:17.704Z,11.82
2022-12-15T06:09:50.119Z,9.82
2022-12-15T06:12:20.133Z,8.70
2022-12-15T06:14:50.066Z,8.32
2022-12-15T06:17:20.027Z,9.00
2022-12-15T06:19:50.068Z,10.35
2022-12-15T06:22:19.932Z,9.27
2022-12-15T06:24:52.384Z,9.68
2022-12-15T06:27:22.525Z,9.45
2022-12-15T06:29:52.544Z,11.80
2022-12-15T06:32:22.505Z,9.70
2022-12-15T06:34:52.492Z,7.18
2022-12-15T06:37:22.379Z,9.80
2022-12-15T06:39:54.940Z,11.00
2022-12-15T06:42:24.859Z,8.43
2022-12-15T06:44:54.793Z,9.55
2022-12-15T06:47:24.724Z,12.43
2022-12-15T06:49:55.505Z,10.30
2022-12-15T06:52:25.350Z,9.45
2022-12-15T06:54:57.937Z,10.18
2022-12-15T06:57:27.784Z,13.52
2022-12-15T06:59:57.641Z,15.45
2022-12-15T07:02:30.186Z,22.58
2022-12-15T07:05:00.288Z,16.15
2022-12-15T07:07:30.476Z,32.17
2022-12-15T07:10:02.976Z,15.98
2022-12-15T07:12:32.891Z,20.95
2022-12-15T07:15:03.155Z,22.30
2022-12-15T07:17:32.996Z,13.50
2022-12-15T07:20:02.859Z,12.10
2022-12-15T07:22:32.734Z,10.63
2022-12-15T07:25:05.228Z,11.20
2022-12-15T07:27:35.434Z,25.77
2022-12-15T07:30:05.263Z,22.73
2022-12-15T07:32:36.111Z,16.90
2022-12-15T07:35:06.045Z,14.93
2022-12-15T07:37:35.950Z,13.82
2022-12-15T07:40:10.081Z,15.98
2022-12-15T07:42:40.175Z,12.63
2022-12-15T07:45:11.363Z,12.85
2022-12-15T07:47:41.317Z,10.80
2022-12-15T07:50:12.104Z,10.75
2022-12-15T07:52:42.059Z,8.95
2022-12-15T07:55:14.715Z,10.20
2022-12-15T07:57:44.595Z,9.65
2022-12-15T08:00:15.568Z,10.70
2022-12-15T08:02:45.752Z,15.15
2022-12-15T08:05:20.331Z,13.80
2022-12-15T08:07:50.222Z,13.93
2022-12-15T08:10:22.709Z,15.15
2022-12-15T08:12:52.653Z,16.55
2022-12-15T08:15:22.592Z,18.45
2022-12-15T08:17:52.515Z,21.42
2022-12-15T08:20:22.562Z,22.00
2022-12-15T08:22:52.453Z,23.83
2022-12-15T08:25:24.981Z,22.40
2022-12-15T08:27:54.905Z,21.02
2022-12-15T08:30:24.765Z,21.08
2022-12-15T08:32:54.666Z,21.60
2022-12-15T08:35:54.443Z,19.83
2022-12-15T08:38:14.430Z,15.75
2022-12-15T08:40:46.970Z,18.05
2022-12-15T08:43:17.045Z,18.17
2022-12-15T08:45:47.005Z,17.05
2022-12-15T08:48:17.016Z,20.42
2022-12-15T08:50:48.096Z,22.58
2022-12-15T08:53:33.327Z,20.23
2022-12-15T08:56:08.629Z,19.17
2022-12-15T08:58:38.825Z,19.02
2022-12-15T09:01:11.001Z,22.88
2022-12-15T09:03:41.733Z,23.65
2022-12-15T09:06:14.930Z,15.73
2022-12-15T09:08:45.347Z,14.80
2022-12-15T09:11:23.028Z,15.55
2022-12-15T09:13:53.006Z,14.90
2022-12-15T09:16:24.058Z,20.58
2022-12-15T09:18:55.626Z,14.90
2022-12-15T09:21:26.866Z,29.88
2022-12-15T09:24:00.613Z,18.75
2022-12-15T09:26:34.661Z,13.05
2022-12-15T09:29:04.729Z,11.93
2022-12-15T09:31:39.213Z,12.70
2022-12-15T09:34:09.107Z,9.50
2022-12-15T09:36:42.436Z,9.27
2022-12-15T09:39:12.993Z,10.23
2022-12-15T09:41:51.952Z,10.13
2022-12-15T09:44:23.557Z,12.73
2022-12-15T09:47:01.502Z,11.15
2022-12-15T09:49:45.607Z,11.25
2022-12-15T09:52:17.756Z,14.88
2022-12-15T09:54:48.243Z,12.82
2022-12-15T09:57:28.485Z,15.38
2022-12-15T10:00:11.105Z,10.85
2022-12-15T10:03:19.891Z,11.35
2022-12-15T10:06:27.089Z,13.98
2022-12-15T10:08:59.533Z,13.00
2022-12-15T10:11:50.972Z,26.83
2022-12-15T10:14:31.413Z,12.15
2022-12-15T10:17:21.526Z,11.40
2022-12-15T10:19:56.407Z,13.63
2022-12-15T10:22:28.889Z,16.50
2022-12-15T10:25:14.243Z,15.35
2022-12-15T10:28:02.335Z,12.73
2022-12-15T10:30:35.390Z,14.18
2022-12-15T10:33:06.751Z,14.55
2022-12-15T10:35:39.805Z,15.55
2022-12-15T10:38:16.844Z,15.75
2022-12-15T10:40:50.282Z,12.73
2022-12-15T10:43:29.310Z,20.30
2022-12-15T10:46:14.147Z,14.05
2022-12-15T10:48:48.681Z,19.17
2022-12-15T10:51:37.176Z,21.33
2022-12-15T10:54:09.854Z,27.65
2022-12-15T10:56:50.596Z,20.17
2022-12-15T10:59:28.365Z,19.83
2022-12-15T11:02:24.357Z,19.65
2022-12-15T11:04:58.497Z,18.55
2022-12-15T11:07:29.610Z,13.95
2022-12-15T11:10:02.747Z,13.57
2022-12-15T11:12:46.887Z,11.98
2022-12-15T11:15:56.686Z,12.52
2022-12-15T11:18:43.552Z,18.67
2022-12-15T11:21:21.721Z,29.05
2022-12-15T11:24:01.265Z,15.98
2022-12-15T11:29:08.967Z,11.70
2022-12-15T11:31:41.898Z,9.88
2022-12-15T11:34:18.573Z,10.27
2022-12-15T11:36:59.111Z,10.10
2022-12-15T11:39:39.011Z,12.52
2022-12-15T11:42:16.595Z,10.95
2022-12-15T11:44:53.340Z,12.60
2022-12-15T11:47:29.185Z,14.43
2022-12-15T11:50:22.745Z,13.80
2022-12-15T11:53:26.829Z,13.60
2022-12-15T11:56:02.889Z,14.50
2022-12-15T11:59:05.006Z,24.77
2022-12-15T12:01:55.456Z,33.25
2022-12-15T12:04:29.371Z,42.75
2022-12-15T12:07:09.821Z,25.77
2022-12-15T12:09:40.843Z,18.98
2022-12-15T12:12:19.677Z,16.63
2022-12-15T12:14:56.156Z,11.82
2022-12-15T12:17:33.944Z,14.13
2022-12-15T12:20:11.358Z,16.58
2022-12-15T12:22:48.357Z,27.13
2022-12-15T12:25:22.347Z,18.45
2022-12-15T12:27:56.202Z,14.85
2022-12-15T12:30:28.374Z,16.08
2022-12-15T12:33:05.997Z,14.15
2022-12-15T12:35:40.877Z,17.08
2022-12-15T12:38:14.775Z,12.38
2022-12-15T12:40:52.008Z,14.45
2022-12-15T12:43:31.455Z,14.88
2022-12-15T12:46:05.014Z,18.95
2022-12-15T12:48:37.780Z,22.73
2022-12-15T12:51:19.406Z,21.20
2022-12-15T12:53:52.680Z,30.77
2022-12-15T12:56:34.170Z,22.92
2022-12-15T12:59:08.829Z,13.63
2022-12-15T13:01:40.223Z,20.58
2022-12-15T13:04:14.928Z,22.75
2022-12-15T13:07:05.883Z,16.70
2022-12-15T13:09:47.670Z,15.05
2022-12-15T13:12:53.267Z,15.60
2022-12-15T13:15:37.405Z,14.43
2022-12-15T13:18:14.549Z,14.52
2022-12-15T13:20:45.422Z,17.88
2022-12-15T13:23:38.054Z,39.42
2022-12-15T13:26:21.700Z,16.20
2022-12-15T13:28:53.849Z,13.65
2022-12-15T13:31:36.419Z,12.05
2022-12-15T13:34:18.877Z,13.82
2022-12-15T13:36:56.870Z,12.93
2022-12-15T13:39:38.725Z,17.45
2022-12-15T13:45:36.826Z,116.43
2022-12-15T13:48:18.404Z,39.85
2022-12-15T13:50:52.350Z,12.93
2022-12-15T13:53:25.744Z,17.88
2022-12-15T13:56:02.349Z,14.63
2022-12-15T13:58:41.159Z,11.93
2022-12-15T14:01:27.261Z,11.25
2022-12-15T14:04:08.085Z,12.23
2022-12-15T14:06:40.474Z,11.68
2022-12-15T14:09:16.151Z,13.85
2022-12-15T14:11:53.098Z,15.73
2022-12-15T14:14:28.365Z,17.50
2022-12-15T14:17:01.350Z,13.98
2022-12-15T14:19:40.706Z,18.33
2022-12-15T14:25:03.268Z,17.20
2022-12-15T14:27:34.708Z,16.47
2022-12-15T14:30:33.075Z,21.05
2022-12-15T14:33:05.617Z,24.70
2022-12-15T14:35:38.775Z,36.10
2022-12-15T14:38:10.992Z,33.43
2022-12-15T14:40:41.590Z,25.67
2022-12-15T14:43:14.905Z,33.83
2022-12-15T14:45:47.558Z,26.60
2022-12-15T14:48:40.983Z,45.00
2022-12-15T14:51:16.305Z,24.33
2022-12-15T14:53:47.056Z,13.13
2022-12-15T14:56:30.785Z,39.97
2022-12-15T14:59:04.433Z,24.53
2022-12-15T15:01:42.813Z,25.57
2022-12-15T15:03:07.531Z,29.92
2022-12-15T15:04:29.391Z,27.57
2022-12-15T15:07:00.916Z,35.27
2022-12-15T15:09:32.630Z,64.53
2022-12-15T15:12:05.750Z,79.80
2022-12-15T15:14:36.865Z,85.23
2022-12-15T15:17:17.104Z,53.27
2022-12-15T15:19:50.463Z,61.67
2022-12-15T15:22:39.818Z,74.93
2022-12-15T15:28:23.326Z,31.97
2022-12-15T15:30:56.528Z,36.40
2022-12-15T15:33:30.648Z,32.83
2022-12-15T15:36:02.484Z,24.13
2022-12-15T15:38:35.782Z,27.37
2022-12-15T15:41:18.059Z,24.17
2022-12-15T15:43:48.327Z,27.90
2022-12-15T15:46:21.169Z,24.00
2022-12-15T15:48:54.886Z,25.05
2022-12-15T15:51:25.372Z,32.00
2022-12-15T15:53:56.195Z,29.27
2022-12-15T15:56:27.548Z,32.87
2022-12-15T15:58:57.527Z,25.90
2022-12-15T16:01:27.565Z,23.53
2022-12-15T16:04:00.141Z,21.42
2022-12-15T16:06:30.524Z,22.58
2022-12-15T16:09:00.468Z,20.00
2022-12-15T16:11:33.020Z,18.93
2022-12-15T16:14:03.742Z,21.17
2022-12-15T16:16:35.390Z,16.02
2022-12-15T16:19:07.979Z,12.37
2022-12-15T16:21:38.517Z,13.37
2022-12-15T16:24:11.805Z,13.27
2022-12-15T16:26:41.984Z,16.83
2022-12-15T16:29:17.618Z,12.00
2022-12-15T16:31:48.082Z,9.27
2022-12-15T16:34:21.858Z,16.83
2022-12-15T16:36:51.780Z,25.98
2022-12-15T16:39:27.844Z,24.27
2022-12-15T16:41:58.585Z,22.50
2022-12-15T16:44:29.644Z,14.35
2022-12-15T16:47:00.186Z,20.13
2022-12-15T16:49:39.777Z,24.93
2022-12-15T16:52:12.111Z,25.77
2022-12-15T16:54:42.280Z,28.70
2022-12-15T16:57:13.760Z,26.30
2022-12-15T16:59:43.653Z,28.37
2022-12-15T17:02:29.528Z,24.73
2022-12-15T17:05:02.274Z,38.57
2022-12-15T17:07:32.631Z,24.47
2022-12-15T17:10:02.572Z,15.13
2022-12-15T17:12:33.100Z,17.23
2022-12-15T17:15:03.052Z,18.83
2022-12-15T17:17:33.436Z,12.37
2022-12-15T17:20:35.749Z,17.43
2022-12-15T17:22:58.825Z,11.47
2022-12-15T17:26:09.376Z,13.17
2022-12-15T17:28:27.409Z,10.40
2022-12-15T17:30:57.655Z,14.27
2022-12-15T17:33:29.822Z,17.37
2022-12-15T17:36:03.726Z,25.00
2022-12-15T17:38:33.688Z,27.23
2022-12-15T17:41:04.034Z,24.17
2022-12-15T17:43:36.147Z,24.53
2022-12-15T17:46:06.378Z,28.20
2022-12-15T17:48:36.477Z,19.87
2022-12-15T17:51:15.515Z,14.90
2022-12-15T17:53:45.729Z,9.35
2022-12-15T17:56:17.484Z,7.07
2022-12-15T17:58:47.630Z,24.90
2022-12-15T18:01:17.592Z,28.77
2022-12-15T18:03:47.659Z,24.13
2022-12-15T18:06:20.798Z,23.20
2022-12-15T18:08:51.048Z,23.00
2022-12-15T18:11:21.256Z,15.27
2022-12-15T18:13:51.358Z,18.70
2022-12-15T18:16:21.275Z,20.03
2022-12-15T18:18:51.323Z,24.87
2022-12-15T18:21:25.066Z,27.40
2022-12-15T18:23:55.046Z,13.97
2022-12-15T18:26:24.904Z,21.33
2022-12-15T18:28:54.877Z,19.87
2022-12-15T18:31:27.896Z,18.07
2022-12-15T18:34:04.346Z,21.23
2022-12-15T18:36:37.207Z,15.17
2022-12-15T18:39:18.735Z,12.90
2022-12-15T18:41:49.185Z,10.43
2022-12-15T18:44:23.866Z,9.47
2022-12-15T18:46:55.008Z,5.10
2022-12-15T18:49:25.334Z,9.40
2022-12-15T18:51:57.925Z,6.37
2022-12-15T18:54:28.919Z,6.27
2022-12-15T18:56:58.855Z,5.90
2022-12-15T18:59:28.820Z,9.50
2022-12-15T19:01:58.812Z,9.20
2022-12-15T19:04:28.820Z,10.60
2022-12-15T19:07:06.671Z,19.03
2022-12-15T19:09:36.988Z,13.73
2022-12-15T19:12:22.061Z,19.10
2022-12-15T19:14:55.120Z,20.17
2022-12-15T19:17:39.167Z,20.60
2022-12-15T19:20:27.883Z,18.47
2022-12-15T19:23:00.324Z,13.00
2022-12-15T19:25:31.950Z,19.87
2022-12-15T19:28:03.376Z,21.53
2022-12-15T19:30:40.242Z,15.03
2022-12-15T19:33:12.230Z,12.65
2022-12-15T19:35:43.555Z,9.68
2022-12-15T19:38:22.438Z,10.87
2022-12-15T19:40:53.491Z,13.60
2022-12-15T19:43:24.185Z,20.57
2022-12-15T19:45:54.865Z,25.33
2022-12-15T19:48:24.818Z,22.53
2022-12-15T19:50:55.111Z,18.50
2022-12-15T19:53:30.122Z,17.23
2022-12-15T19:56:02.689Z,17.60
2022-12-15T19:58:34.125Z,21.23
2022-12-15T20:01:07.416Z,19.37
2022-12-15T20:03:39.088Z,17.23
2022-12-15T20:06:16.089Z,12.47
2022-12-15T20:08:50.492Z,28.23
2022-12-15T20:11:22.799Z,21.40
2022-12-15T20:13:53.454Z,23.77
2022-12-15T20:16:24.239Z,37.10
2022-12-15T20:18:56.127Z,25.70
2022-12-15T20:21:31.353Z,31.90
2022-12-15T20:24:07.805Z,17.63
2022-12-15T20:26:39.378Z,18.00
2022-12-15T20:29:13.481Z,18.50
2022-12-15T20:31:43.469Z,16.87
2022-12-15T20:34:13.450Z,16.43
2022-12-15T20:36:43.326Z,14.30
2022-12-15T20:39:22.661Z,16.53
2022-12-15T20:41:52.621Z,13.57
2022-12-15T20:44:23.061Z,11.20
2022-12-15T20:46:53.332Z,14.27
2022-12-15T20:49:24.931Z,12.10
2022-12-15T20:51:55.289Z,13.60
2022-12-15T20:54:27.754Z,10.30
2022-12-15T20:56:57.749Z,13.43
2022-12-15T20:59:27.628Z,15.17
2022-12-15T21:01:57.678Z,20.73
2022-12-15T21:04:30.484Z,13.20
2022-12-15T21:07:00.410Z,23.57
2022-12-15T21:09:33.333Z,34.07
2022-12-15T21:12:08.991Z,26.20
2022-12-15T21:14:39.247Z,10.37
2022-12-15T21:17:09.270Z,19.40
2022-12-15T21:19:39.185Z,21.87
2022-12-15T21:22:12.486Z,15.40
2022-12-15T21:24:44.985Z,19.83
2022-12-15T21:27:15.296Z,20.20
2022-12-15T21:29:52.025Z,17.03
2022-12-15T21:32:22.746Z,19.27
2022-12-15T21:34:52.737Z,15.00
2022-12-15T21:37:27.472Z,17.77
2022-12-15T21:40:00.863Z,17.93
2022-12-15T21:42:30.851Z,16.33
2022-12-15T21:45:00.723Z,31.37
2022-12-15T21:47:52.652Z,28.70
2022-12-15T21:50:22.215Z,20.97
2022-12-15T21:52:52.060Z,18.27
2022-12-15T21:55:27.351Z,13.47
2022-12-15T21:57:57.951Z,12.03
2022-12-15T22:00:28.580Z,13.53
2022-12-15T22:02:58.675Z,13.33
2022-12-15T22:05:30.495Z,17.07
2022-12-15T22:08:01.377Z,23.97
2022-12-15T22:10:33.870Z,40.03
2022-12-15T22:13:03.817Z,80.50
2022-12-15T22:15:33.704Z,63.17
2022-12-15T22:18:03.705Z,41.70
2022-12-15T22:20:33.608Z,31.93
2022-12-15T22:23:03.464Z,31.13
2022-12-15T22:25:36.033Z,29.10
2022-12-15T22:28:06.359Z,25.87
2022-12-15T22:30:36.265Z,15.53
2022-12-15T22:33:15.051Z,17.07
2022-12-15T22:35:47.496Z,15.70
2022-12-15T22:38:17.356Z,15.57
2022-12-15T22:40:51.826Z,13.73
2022-12-15T22:43:25.368Z,11.97
2022-12-15T22:45:56.169Z,11.03
2022-12-15T22:48:27.226Z,13.27
2022-12-15T22:50:57.051Z,14.43
2022-12-15T22:53:28.507Z,23.47
2022-12-15T22:56:02.024Z,23.43
2022-12-15T22:58:34.514Z,22.57
2022-12-15T23:01:04.660Z,19.47
2022-12-15T23:03:35.149Z,10.93
2022-12-15T23:06:06.471Z,9.47
2022-12-15T23:08:36.455Z,10.27
2022-12-15T23:11:21.393Z,9.63
2022-12-15T23:13:51.318Z,13.33
2022-12-15T23:16:22.298Z,6.87
2022-12-15T23:18:54.985Z,8.13
2022-12-15T23:21:26.366Z,8.83
2022-12-15T23:23:56.334Z,9.33
2022-12-15T23:26:29.059Z,10.23
2022-12-15T23:28:59.024Z,15.93
2022-12-15T23:31:29.039Z,14.73
2022-12-15T23:33:59.109Z,15.03
2022-12-15T23:36:28.912Z,16.07
2022-12-15T23:39:00.128Z,11.23
2022-12-15T23:41:33.165Z,13.07
2022-12-15T23:44:03.431Z,10.70
2022-12-15T23:46:34.039Z,11.83
2022-12-15T23:49:04.020Z,17.20
2022-12-15T23:51:33.845Z,14.60
2022-12-15T23:54:03.622Z,18.55
2022-12-15T23:56:36.151Z,14.73
2022-12-15T23:59:06.065Z,12.70
